Time;durP1;ratioP1;P1;durP2;ratioP2;P2;SDS_P1;SDS_P2;PMS_P1;PMS_P2;Temp;Humidity;BMP_temperature;BMP_pressure;BME280_temperature;BME280_humidity;BME280_pressure;Samples;Min_cycle;Max_cycle;Signal;HPM_P1;HPM_P2
2021/09/15 00:02:14;;;;;;;;;8.00;7.33;;;;;24.01;66.00;100463.28;5081428;27;47278;-53
2021/09/15 00:04:39;;;;;;;;;9.67;8.00;;;;;24.00;66.16;100458.84;5067446;27;45638;-53
2021/09/15 00:07:04;;;;;;;;;6.00;6.00;;;;;24.00;66.38;100458.84;5080988;27;45395;-53
2021/09/15 00:09:30;;;;;;;;;8.00;7.00;;;;;24.02;66.03;100465.91;5081020;27;45501;-53
2021/09/15 00:11:56;;;;;;;;;8.33;8.33;;;;;24.03;66.10;100461.34;5079849;27;47537;-54
2021/09/15 00:14:22;;;;;;;;;7.67;7.67;;;;;24.02;65.85;100456.91;5062524;28;45659;-53
2021/09/15 00:16:47;;;;;;;;;5.67;5.67;;;;;24.03;65.70;100450.50;5085956;27;45353;-53
2021/09/15 00:19:13;;;;;;;;;6.67;6.67;;;;;24.01;65.91;100442.50;5082419;27;45314;-54
2021/09/15 00:21:38;;;;;;;;;5.00;5.00;;;;;24.01;65.80;100444.31;5079136;27;48509;-52
2021/09/15 00:24:04;;;;;;;;;5.33;5.33;;;;;24.01;65.75;100441.59;5080052;27;45291;-53
2021/09/15 00:26:30;;;;;;;;;7.00;6.00;;;;;23.98;65.61;100444.56;5085934;27;45427;-53
2021/09/15 00:28:55;;;;;;;;;5.67;5.67;;;;;23.97;65.56;100449.13;5076631;27;45245;-53
2021/09/15 00:31:20;;;;;;;;;5.67;5.67;;;;;23.97;65.64;100448.25;5067710;27;47729;-53
2021/09/15 00:33:46;;;;;;;;;5.00;5.00;;;;;23.97;65.78;100441.00;5080602;28;45341;-53
2021/09/15 00:36:11;;;;;;;;;6.25;6.25;;;;;23.98;65.66;100441.84;5081187;28;45243;-53
2021/09/15 00:38:37;;;;;;;;;5.25;5.25;;;;;23.99;65.61;100436.31;5080608;28;45597;-52
2021/09/15 00:41:03;;;;;;;;;4.00;4.00;;;;;23.98;65.72;100431.88;5061465;28;47157;-55
2021/09/15 00:43:28;;;;;;;;;5.67;5.67;;;;;23.98;65.73;100431.88;5076958;28;46067;-53
2021/09/15 00:45:56;;;;;;;;;5.00;5.00;;;;;23.99;65.45;100432.72;5065908;28;45648;-53
2021/09/15 00:48:22;;;;;;;;;5.50;5.25;;;;;23.97;65.61;100419.31;5080754;28;45278;-53
2021/09/15 00:50:48;;;;;;;;;4.00;4.00;;;;;23.99;65.42;100421.88;5062962;27;48254;-51
2021/09/15 00:53:14;;;;;;;;;6.00;6.00;;;;;23.97;65.68;100415.75;5081045;27;45943;-52
2021/09/15 00:55:39;;;;;;;;;6.33;6.33;;;;;23.97;65.67;100418.44;5080083;27;45347;-52
2021/09/15 00:58:05;;;;;;;;;7.25;7.25;;;;;23.95;65.89;100418.56;5079381;28;45330;-51
2021/09/15 01:00:30;;;;;;;;;7.67;6.67;;;;;23.97;65.80;100423.88;5061843;28;45378;-52
2021/09/15 01:02:56;;;;;;;;;7.33;5.00;;;;;23.97;65.82;100422.03;5080088;27;45307;-51
2021/09/15 01:05:21;;;;;;;;;7.00;5.25;;;;;23.98;65.38;100425.59;5080294;27;45412;-52
2021/09/15 01:07:47;;;;;;;;;6.75;6.75;;;;;23.95;65.75;100418.56;5080212;27;45566;-49
2021/09/15 01:10:13;;;;;;;;;8.00;7.00;;;;;23.96;65.77;100424.84;5079802;28;47492;-53
2021/09/15 01:12:39;;;;;;;;;4.00;4.00;;;;;23.95;65.71;100424.00;5079173;27;46059;-52
2021/09/15 01:15:06;;;;;;;;;6.67;6.00;;;;;23.95;65.48;100425.84;5079667;28;45318;-47
2021/09/15 01:17:31;;;;;;;;;7.00;7.00;;;;;23.94;65.70;100433.13;5082871;27;45578;-51
2021/09/15 01:19:57;;;;;;;;;5.67;5.67;;;;;23.94;65.82;100424.13;5079771;28;47137;-50
2021/09/15 01:22:23;;;;;;;;;6.00;6.00;;;;;23.95;65.48;100425.84;5079468;28;45335;-51
2021/09/15 01:24:49;;;;;;;;;6.67;6.00;;;;;23.94;65.45;100424.13;5079564;27;45652;-49
2021/09/15 01:27:15;;;;;;;;;7.00;7.00;;;;;23.93;65.32;100420.56;5091363;27;45464;-52
2021/09/15 01:29:40;;;;;;;;;5.67;5.00;;;;;23.93;65.21;100414.28;5084411;27;48319;-51
2021/09/15 01:32:07;;;;;;;;;9.00;7.67;;;;;23.91;65.57;100414.41;5083726;27;45773;-52
2021/09/15 01:34:39;;;;;;;;;5.67;5.67;;;;;23.91;65.54;100416.25;5080305;27;45728;-51
2021/09/15 01:37:07;;;;;;;;;5.00;5.00;;;;;23.89;65.46;100412.81;5080099;27;45335;-51
2021/09/15 01:39:33;;;;;;;;;6.25;6.25;;;;;23.90;65.53;100422.66;5060300;28;47002;-48
2021/09/15 01:42:00;;;;;;;;;7.00;6.33;;;;;23.89;65.86;100424.50;5076262;28;45665;-52
2021/09/15 01:44:36;;;;;;;;;5.33;5.33;;;;;23.90;65.51;100422.66;5077814;28;45493;-51
2021/09/15 01:47:03;;;;;;;;;7.75;6.75;;;;;23.89;65.52;100415.53;5061284;28;45617;-52
2021/09/15 01:49:30;;;;;;;;;6.33;5.00;;;;;23.89;65.49;100416.38;5079717;27;47403;-51
2021/09/15 01:51:57;;;;;;;;;5.33;5.33;;;;;23.89;65.69;100416.38;5089837;27;45416;-48
2021/09/15 01:54:23;;;;;;;;;6.50;5.50;;;;;23.89;65.86;100421.81;5079908;27;45588;-52
2021/09/15 01:56:49;;;;;;;;;8.25;7.25;;;;;23.87;65.87;100421.03;5079430;28;45860;-49
2021/09/15 01:59:15;;;;;;;;;6.00;6.00;;;;;23.87;65.88;100421.03;5079239;28;47370;-52
2021/09/15 02:01:40;;;;;;;;;7.00;5.25;;;;;23.87;65.55;100410.22;5079788;28;45751;-52
2021/09/15 02:04:06;;;;;;;;;7.33;6.00;;;;;23.87;65.60;100417.47;5079163;27;45390;-52
2021/09/15 02:06:31;;;;;;;;;7.50;7.50;;;;;23.86;65.70;100408.47;5078528;27;45783;-49
2021/09/15 02:08:57;;;;;;;;;7.33;6.67;;;;;23.87;65.62;100418.34;5060389;28;47254;-51
2021/09/15 02:11:24;;;;;;;;;8.00;8.00;;;;;23.89;65.67;100423.66;5078845;27;45353;-51
2021/09/15 02:13:50;;;;;;;;;5.67;5.67;;;;;23.90;65.65;100425.38;5079179;27;45607;-52
2021/09/15 02:16:15;;;;;;;;;7.00;7.00;;;;;23.89;65.52;100423.66;5079143;27;45394;-51
2021/09/15 02:18:41;;;;;;;;;7.00;7.00;;;;;23.84;65.45;100426.72;5078860;27;46397;-52
2021/09/15 02:21:06;;;;;;;;;6.00;6.00;;;;;23.84;65.93;100434.84;5077104;27;45376;-48
2021/09/15 02:23:32;;;;;;;;;8.00;8.00;;;;;23.86;65.78;100442.84;5078892;27;45573;-46
2021/09/15 02:25:58;;;;;;;;;10.00;8.67;;;;;23.87;66.16;100437.31;5083094;27;45611;-52
2021/09/15 02:28:23;;;;;;;;;6.25;6.25;;;;;23.87;65.71;100431.03;5081520;27;48421;-49
2021/09/15 02:30:49;;;;;;;;;7.00;7.00;;;;;23.86;65.98;100419.31;5078371;27;45703;-52
2021/09/15 02:33:14;;;;;;;;;6.67;6.67;;;;;23.88;65.77;100425.47;5060949;28;45389;-51
2021/09/15 02:35:40;;;;;;;;;8.67;7.00;;;;;23.89;65.86;100423.66;5078266;28;45405;-51
2021/09/15 02:38:05;;;;;;;;;6.00;6.00;;;;;23.88;65.59;100420.06;5078516;28;48468;-50
2021/09/15 02:40:31;;;;;;;;;4.00;4.00;;;;;23.86;65.78;100421.19;5078516;28;45439;-50
2021/09/15 02:42:56;;;;;;;;;6.00;6.00;;;;;23.87;66.22;100431.03;5067942;28;45464;-51
2021/09/15 02:45:22;;;;;;;;;6.00;6.00;;;;;23.87;65.77;100431.88;5079030;27;45506;-51
2021/09/15 02:47:48;;;;;;;;;7.25;6.75;;;;;23.88;66.02;100438.16;5078309;28;47905;-50
2021/09/15 02:50:13;;;;;;;;;8.33;5.67;;;;;23.90;66.08;100449.78;5078637;28;46111;-51
2021/09/15 02:52:38;;;;;;;;;9.00;6.67;;;;;23.88;66.29;100441.72;5077748;27;45440;-52
2021/09/15 02:55:04;;;;;;;;;7.00;6.00;;;;;23.88;66.40;100447.16;5077895;27;45592;-51
2021/09/15 02:57:30;;;;;;;;;9.00;7.75;;;;;23.87;66.46;100447.28;5060114;28;48193;-52
2021/09/15 02:59:55;;;;;;;;;7.67;7.33;;;;;23.82;66.54;100441.38;5078846;27;45723;-51
2021/09/15 03:02:21;;;;;;;;;9.00;8.00;;;;;23.81;66.34;100451.38;5078666;27;45232;-50
2021/09/15 03:04:46;;;;;;;;;9.00;7.00;;;;;23.83;66.55;100443.97;5059834;28;45629;-52
2021/09/15 03:07:12;;;;;;;;;6.00;6.00;;;;;23.82;66.66;100439.53;5077477;27;48258;-50
2021/09/15 03:09:37;;;;;;;;;7.00;5.67;;;;;23.80;66.78;100435.25;5078104;27;45445;-51
2021/09/15 03:12:03;;;;;;;;;8.67;7.67;;;;;23.80;66.73;100432.53;5078075;28;45543;-52
2021/09/15 03:14:28;;;;;;;;;7.00;7.00;;;;;23.80;66.65;100433.38;5060565;28;45473;-53
2021/09/15 03:16:54;;;;;;;;;7.00;7.00;;;;;23.78;66.73;100429.94;5078179;27;47109;-52
2021/09/15 03:19:20;;;;;;;;;12.50;12.00;;;;;23.79;66.62;100428.97;5060377;28;45337;-51
2021/09/15 03:21:46;;;;;;;;;12.00;10.00;;;;;23.78;66.64;100429.94;5078084;28;45433;-52
2021/09/15 03:24:12;;;;;;;;;8.00;8.00;;;;;23.77;66.73;100430.94;5078240;28;45361;-49
2021/09/15 03:26:38;;;;;;;;;6.33;6.33;;;;;23.75;66.87;100431.03;5065385;27;47133;-49
2021/09/15 03:29:03;;;;;;;;;6.33;6.33;;;;;23.74;66.88;100433.88;5077927;27;45337;-49
2021/09/15 03:31:29;;;;;;;;;7.00;7.00;;;;;23.76;66.63;100430.06;5078041;28;45433;-51
2021/09/15 03:33:55;;;;;;;;;7.67;7.33;;;;;23.75;66.80;100425.63;5078451;27;45524;-52
2021/09/15 03:36:20;;;;;;;;;6.00;6.00;;;;;23.72;66.98;100433.13;5077189;27;47547;-51
2021/09/15 03:38:46;;;;;;;;;7.67;7.67;;;;;23.71;66.88;100436.84;5077368;28;45879;-51
2021/09/15 03:41:12;;;;;;;;;6.00;6.00;;;;;23.69;66.86;100434.25;5077813;27;45426;-52
2021/09/15 03:43:37;;;;;;;;;9.00;9.00;;;;;23.68;66.73;100429.81;5083962;27;45919;-48
2021/09/15 03:46:03;;;;;;;;;7.00;6.33;;;;;23.68;67.19;100429.81;5064936;28;47595;-50
2021/09/15 03:48:28;;;;;;;;;8.67;8.67;;;;;23.69;66.94;100436.09;5072017;28;45793;-50
2021/09/15 03:50:54;;;;;;;;;7.33;7.33;;;;;23.68;66.74;100437.09;5063470;27;45448;-52
2021/09/15 03:53:19;;;;;;;;;12.00;11.33;;;;;23.67;67.04;100438.94;5077756;28;45476;-48
2021/09/15 03:55:45;;;;;;;;;9.33;8.67;;;;;23.65;66.90;100443.63;5077481;27;46878;-50
2021/09/15 03:58:10;;;;;;;;;10.00;10.00;;;;;23.65;67.07;100442.75;5077479;28;45531;-52
2021/09/15 04:00:36;;;;;;;;;8.00;8.00;;;;;23.62;67.00;100445.69;5078006;27;45484;-51
2021/09/15 04:03:01;;;;;;;;;9.00;9.00;;;;;23.62;67.27;100449.25;5077700;27;45360;-52
2021/09/15 04:05:27;;;;;;;;;9.00;8.00;;;;;23.61;67.30;100443.97;5079948;27;46806;-48
2021/09/15 04:07:53;;;;;;;;;8.00;8.00;;;;;23.60;67.04;100451.25;5080722;27;45392;-50
2021/09/15 04:10:18;;;;;;;;;7.67;7.67;;;;;23.60;67.42;100439.53;5063099;27;45359;-48
2021/09/15 04:12:44;;;;;;;;;8.33;7.00;;;;;23.58;67.13;100442.38;5080534;27;45336;-49
2021/09/15 04:15:10;;;;;;;;;9.67;9.33;;;;;23.57;67.67;100439.75;5080841;27;47405;-51
2021/09/15 04:17:35;;;;;;;;;7.67;7.67;;;;;23.56;67.45;100438.91;5066824;27;45377;-52
2021/09/15 04:20:01;;;;;;;;;7.33;7.33;;;;;23.57;67.35;100446.03;5080598;27;45320;-51
2021/09/15 04:22:26;;;;;;;;;9.33;9.33;;;;;23.58;67.73;100444.22;5062449;28;45429;-52
2021/09/15 04:32:59;;;;;;;;;9.00;9.00;;;;;23.60;67.43;100442.25;5081831;27;45613;-53
2021/09/15 04:35:26;;;;;;;;;8.00;8.00;;;;;23.60;67.24;100443.13;5079679;27;48428;-51
2021/09/15 04:37:52;;;;;;;;;10.00;10.00;;;;;23.62;67.33;100451.13;5079893;27;45420;-51
2021/09/15 04:40:17;;;;;;;;;9.00;8.00;;;;;23.62;67.47;100449.25;5080613;27;46494;-51
2021/09/15 04:42:43;;;;;;;;;9.67;9.67;;;;;23.63;67.30;100451.03;5080703;27;45512;-50
2021/09/15 04:45:09;;;;;;;;;11.00;11.00;;;;;23.65;67.53;100451.75;5083408;27;48063;-48
2021/09/15 04:47:34;;;;;;;;;8.33;8.33;;;;;23.66;67.20;100445.34;5083369;27;45460;-48
2021/09/15 04:50:00;;;;;;;;;9.00;9.00;;;;;23.66;67.29;100442.63;5081117;27;45376;-50
2021/09/15 04:52:25;;;;;;;;;8.00;8.00;;;;;23.66;67.21;100448.06;5082992;27;45393;-49
2021/09/15 04:54:51;;;;;;;;;10.33;9.67;;;;;23.65;67.26;100440.91;5079447;27;48240;-48
2021/09/15 04:57:17;;;;;;;;;10.00;8.33;;;;;23.66;67.18;100439.06;5080544;27;45334;-51
2021/09/15 04:59:42;;;;;;;;;11.33;9.67;;;;;23.64;67.23;100441.91;5080355;27;45507;-49
2021/09/15 05:02:08;;;;;;;;;10.00;9.00;;;;;23.66;67.08;100449.91;5078859;27;45451;-52
2021/09/15 05:04:33;;;;;;;;;9.67;9.67;;;;;23.65;67.30;100446.34;5079701;27;45623;-52
2021/09/15 05:06:59;;;;;;;;;9.67;8.67;;;;;23.65;67.01;100449.03;5069330;27;45694;-52
2021/09/15 05:09:24;;;;;;;;;9.67;9.00;;;;;23.65;67.15;100453.59;5080057;27;45436;-50
2021/09/15 05:11:49;;;;;;;;;8.75;8.75;;;;;23.64;66.84;100452.75;5080188;27;45370;-52
2021/09/15 05:14:15;;;;;;;;;7.67;7.67;;;;;23.64;67.15;100450.03;5079453;27;48180;-48
2021/09/15 05:16:40;;;;;;;;;10.67;9.67;;;;;23.63;67.21;100442.91;5080488;27;45357;-49
2021/09/15 05:19:06;;;;;;;;;12.00;11.00;;;;;23.63;67.55;100455.53;5082634;27;45726;-50
2021/09/15 05:21:31;;;;;;;;;9.33;9.33;;;;;23.60;67.13;100461.22;5079022;27;45321;-53
2021/09/15 05:23:57;;;;;;;;;10.33;10.33;;;;;23.58;67.48;100458.63;5061282;28;47028;-50
2021/09/15 05:26:22;;;;;;;;;9.00;7.33;;;;;23.58;67.41;100461.34;5082920;27;45964;-50
2021/09/15 05:28:48;;;;;;;;;8.67;8.00;;;;;23.57;67.22;100454.16;5088583;27;45372;-53
2021/09/15 05:31:13;;;;;;;;;11.67;10.00;;;;;23.58;66.99;100455.94;5079463;27;45365;-52
2021/09/15 05:33:39;;;;;;;;;9.00;9.00;;;;;23.59;67.37;100463.06;5079421;27;47180;-53
2021/09/15 05:36:05;;;;;;;;;8.33;8.33;;;;;23.61;67.18;100461.09;5079204;27;45297;-51
2021/09/15 05:38:30;;;;;;;;;10.33;10.33;;;;;23.62;67.22;100464.66;5075660;27;45422;-52
2021/09/15 05:40:56;;;;;;;;;12.00;10.67;;;;;23.61;67.08;100465.66;5079401;27;45883;-52
2021/09/15 05:43:21;;;;;;;;;10.00;8.33;;;;;23.60;67.33;100467.50;5065237;27;46954;-52
2021/09/15 05:45:47;;;;;;;;;3.67;3.67;;;;;23.62;67.29;100467.38;5079532;27;45698;-52
2021/09/15 05:48:12;;;;;;;;;8.00;8.00;;;;;23.63;67.22;100477.22;5068435;28;45327;-51
2021/09/15 05:50:38;;;;;;;;;9.67;9.00;;;;;23.64;67.22;100471.72;5086646;27;45232;-52
2021/09/15 05:53:03;;;;;;;;;10.25;10.00;;;;;23.65;67.22;100470.72;5060419;28;47041;-52
2021/09/15 05:55:29;;;;;;;;;9.67;9.67;;;;;23.66;67.33;100477.84;5080644;27;45353;-48
2021/09/15 05:57:54;;;;;;;;;9.00;9.00;;;;;23.66;67.07;100483.28;5079459;27;45483;-52
2021/09/15 06:00:20;;;;;;;;;9.00;9.00;;;;;23.67;67.19;100479.56;5079645;27;45356;-52
2021/09/15 06:02:45;;;;;;;;;9.00;9.00;;;;;23.69;67.02;100480.31;5058447;28;47157;-50
2021/09/15 06:05:11;;;;;;;;;9.33;6.67;;;;;23.67;67.24;100482.28;5076927;27;45362;-51
2021/09/15 06:07:36;;;;;;;;;17.00;16.25;;;;;23.68;67.09;100484.00;5075986;27;46478;-47
2021/09/15 06:10:02;;;;;;;;;9.33;8.67;;;;;23.68;67.24;100483.16;5076642;27;45426;-53
2021/09/15 06:12:28;;;;;;;;;11.33;9.33;;;;;23.69;67.16;100493.00;5043580;28;46827;-52
2021/09/15 06:14:53;;;;;;;;;12.33;10.00;;;;;23.70;67.49;100494.72;5058017;27;45461;-51
2021/09/15 06:17:19;;;;;;;;;10.00;10.00;;;;;23.71;67.22;100491.03;5078928;27;45443;-51
2021/09/15 06:19:44;;;;;;;;;11.67;10.00;;;;;23.72;66.94;100499.03;5078276;27;45459;-53
2021/09/15 06:22:10;;;;;;;;;11.00;11.00;;;;;23.75;67.25;100492.50;5079262;27;48248;-52
2021/09/15 06:24:35;;;;;;;;;11.75;11.00;;;;;23.77;67.24;100502.25;5063264;28;45782;-52
2021/09/15 06:27:01;;;;;;;;;10.00;9.33;;;;;23.77;66.87;100499.53;5057144;28;45296;-49
2021/09/15 06:29:26;;;;;;;;;9.00;9.00;;;;;23.81;67.21;100499.28;5060996;28;45326;-50
2021/09/15 06:31:52;;;;;;;;;10.00;10.00;;;;;23.81;66.86;100491.16;5075291;28;47457;-52
2021/09/15 06:34:17;;;;;;;;;8.33;8.33;;;;;23.83;66.80;100503.59;5078518;27;45613;-49
2021/09/15 06:36:43;;;;;;;;;11.00;11.00;;;;;23.84;67.05;100499.03;5060307;28;45399;-51
2021/09/15 06:39:09;;;;;;;;;8.00;8.00;;;;;23.85;66.92;100500.75;5078167;28;45459;-53
2021/09/15 06:41:35;;;;;;;;;11.25;11.25;;;;;23.85;66.96;100498.03;5052865;28;48369;-52
2021/09/15 06:44:01;;;;;;;;;11.75;11.25;;;;;23.84;66.71;100502.59;5089175;27;45883;-53
2021/09/15 06:46:27;;;;;;;;;10.25;9.75;;;;;23.84;66.83;100507.16;5079874;27;46555;-50
2021/09/15 06:48:52;;;;;;;;;15.00;11.67;;;;;23.84;67.17;100502.59;5068917;27;45777;-49
2021/09/15 06:51:18;;;;;;;;;11.33;11.33;;;;;23.85;66.95;100498.91;5067906;27;47362;-53
2021/09/15 06:53:44;;;;;;;;;14.00;13.50;;;;;23.87;67.12;100505.06;5059828;28;45486;-49
2021/09/15 06:56:10;;;;;;;;;12.25;12.00;;;;;23.90;66.90;100502.13;5060408;28;45874;-52
2021/09/15 06:58:35;;;;;;;;;13.25;12.25;;;;;23.92;66.81;100500.16;5079026;28;45321;-53
2021/09/15 07:01:01;;;;;;;;;12.00;11.00;;;;;23.95;66.62;100510.72;5077363;28;48293;-53
2021/09/15 07:03:26;;;;;;;;;13.25;12.50;;;;;23.96;66.80;100507.03;5078446;27;45687;-53
2021/09/15 07:05:52;;;;;;;;;10.75;10.75;;;;;23.99;66.58;100514.06;5078520;27;45517;-53
2021/09/15 07:08:17;;;;;;;;;14.00;10.75;;;;;24.01;66.96;100512.06;5085184;27;45464;-49
2021/09/15 07:10:43;;;;;;;;;12.50;11.75;;;;;24.03;66.84;100516.41;5071776;27;47145;-54
2021/09/15 07:13:09;;;;;;;;;11.25;11.25;;;;;24.05;66.78;100522.56;5060149;28;45612;-52
2021/09/15 07:15:35;;;;;;;;;8.33;8.33;;;;;24.07;66.75;100517.00;5070765;28;45482;-52
2021/09/15 07:18:00;;;;;;;;;16.33;16.33;;;;;24.09;66.34;100520.47;5077975;28;45695;-52
2021/09/15 07:20:26;;;;;;;;;13.33;11.67;;;;;24.08;66.27;100526.88;5078208;28;47685;-53
2021/09/15 07:22:52;;;;;;;;;14.00;12.67;;;;;24.09;66.74;100531.31;5059695;28;45890;-52
2021/09/15 07:25:18;;;;;;;;;15.33;13.00;;;;;24.08;66.41;100530.44;5077902;28;45454;-52
2021/09/15 07:27:43;;;;;;;;;11.50;11.50;;;;;24.08;66.37;100533.16;5056332;28;45402;-51
2021/09/15 07:30:10;;;;;;;;;12.33;12.00;;;;;24.09;66.37;100534.00;5076511;27;47437;-53
2021/09/15 07:32:36;;;;;;;;;15.25;14.75;;;;;24.08;66.20;100538.56;5085711;27;45702;-53
2021/09/15 07:35:02;;;;;;;;;8.25;7.75;;;;;24.08;66.55;100545.84;5059900;28;45358;-54
2021/09/15 07:37:27;;;;;;;;;12.25;12.25;;;;;24.07;66.33;100539.56;5078735;28;45532;-51
2021/09/15 07:39:53;;;;;;;;;14.00;13.25;;;;;24.07;66.46;100542.28;5080230;28;47055;-51
2021/09/15 07:42:19;;;;;;;;;20.50;14.00;;;;;24.05;66.32;100538.84;5081873;28;45537;-53
2021/09/15 07:44:45;;;;;;;;;15.50;14.75;;;;;24.05;66.32;100540.69;5082343;27;45508;-51
2021/09/15 07:47:15;;;;;;;;;14.67;11.00;;;;;24.05;66.57;100543.38;5081273;27;45765;-49
2021/09/15 07:49:42;;;;;;;;;12.50;11.75;;;;;24.03;66.57;100545.38;5081169;27;47229;-54
2021/09/15 07:52:08;;;;;;;;;12.75;12.75;;;;;24.02;66.33;100549.06;5083868;27;45688;-53
2021/09/15 07:54:33;;;;;;;;;13.75;13.00;;;;;23.99;66.43;100550.16;5060688;28;45844;-51
2021/09/15 07:56:58;;;;;;;;;15.50;15.50;;;;;23.97;66.41;100546.72;5081400;27;45292;-52
2021/09/15 07:59:24;;;;;;;;;15.50;14.25;;;;;23.95;66.49;100542.41;5081104;28;48113;-52
2021/09/15 08:01:49;;;;;;;;;14.00;14.00;;;;;23.94;66.35;100543.38;5083256;27;45518;-53
2021/09/15 08:04:15;;;;;;;;;15.50;15.50;;;;;23.93;66.71;100542.53;5080921;28;45994;-52
2021/09/15 08:06:40;;;;;;;;;15.50;14.75;;;;;23.91;66.60;100543.63;5046873;28;45351;-53
2021/09/15 08:09:06;;;;;;;;;17.25;16.25;;;;;23.89;66.82;100548.31;5079222;27;47229;-52
2021/09/15 08:11:32;;;;;;;;;16.25;16.25;;;;;23.86;66.78;100548.53;5078347;28;45413;-53
2021/09/15 08:13:58;;;;;;;;;14.67;14.67;;;;;23.81;66.99;100551.63;5081254;28;45349;-53
2021/09/15 08:16:23;;;;;;;;;17.75;16.00;;;;;23.80;67.27;100558.03;5081287;27;45362;-52
2021/09/15 08:18:49;;;;;;;;;15.75;14.25;;;;;23.76;67.29;100551.16;5081061;27;47140;-54
2021/09/15 08:21:14;;;;;;;;;15.33;12.67;;;;;23.75;67.48;100555.69;5080149;27;45652;-53
2021/09/15 08:23:40;;;;;;;;;15.00;15.00;;;;;23.75;67.28;100550.25;5080161;27;45580;-53
2021/09/15 08:26:05;;;;;;;;;12.67;12.67;;;;;23.76;67.38;100556.56;5081152;27;45289;-52
2021/09/15 08:28:36;;;;;;;;;12.67;12.00;;;;;23.75;67.41;100561.09;5087666;27;47253;-52
2021/09/15 08:31:03;;;;;;;;;10.00;10.00;;;;;23.76;67.27;100562.00;5080225;27;45437;-54
2021/09/15 08:33:29;;;;;;;;;8.67;8.67;;;;;23.77;67.25;100561.88;5062534;28;45468;-53
2021/09/15 08:35:54;;;;;;;;;10.00;9.33;;;;;23.77;67.36;100567.28;5081523;27;45398;-53
2021/09/15 08:38:20;;;;;;;;;12.00;9.00;;;;;23.78;67.03;100562.72;5080071;27;48139;-53
2021/09/15 08:40:46;;;;;;;;;9.33;9.33;;;;;23.80;67.42;100573.44;5080684;27;45247;-53
2021/09/15 08:43:11;;;;;;;;;8.00;8.00;;;;;23.82;67.35;100568.75;5080719;27;45242;-54
2021/09/15 08:45:37;;;;;;;;;10.33;10.33;;;;;23.84;67.11;100566.78;5080514;27;45584;-54
2021/09/15 08:48:03;;;;;;;;;9.25;8.50;;;;;23.85;67.35;100563.09;5080370;27;46849;-53
2021/09/15 08:50:29;;;;;;;;;7.00;7.00;;;;;23.90;67.23;100577.16;5061445;28;45278;-53
2021/09/15 08:52:55;;;;;;;;;13.33;11.33;;;;;23.94;67.40;100576.78;5080758;27;45393;-51
2021/09/15 08:55:21;;;;;;;;;12.50;11.00;;;;;24.01;67.23;100578.03;5075287;27;45323;-53
2021/09/15 08:57:46;;;;;;;;;8.75;6.00;;;;;24.05;67.33;100565.94;5080132;27;47275;-52
2021/09/15 09:00:13;;;;;;;;;11.00;10.00;;;;;24.11;67.06;100577.25;5079772;27;45688;-50
2021/09/15 09:02:40;;;;;;;;;8.00;8.00;;;;;24.13;66.97;100581.56;5080052;27;45742;-52
2021/09/15 09:05:07;;;;;;;;;8.67;8.67;;;;;24.17;66.89;100582.22;5070040;28;45469;-53
2021/09/15 09:07:33;;;;;;;;;6.33;6.33;;;;;24.18;67.02;100578.50;5061612;27;47237;-51
2021/09/15 09:10:06;;;;;;;;;8.00;7.67;;;;;24.17;66.82;100583.06;5080734;27;45721;-54
2021/09/15 09:12:31;;;;;;;;;6.67;6.67;;;;;24.16;66.95;100578.63;5079434;27;45254;-54
2021/09/15 09:15:22;;;;;;;;;6.00;6.00;;;;;24.13;67.15;100584.28;5080140;27;45401;-52
2021/09/15 09:17:48;;;;;;;;;15.67;14.00;;;;;24.12;67.38;100579.00;5077785;27;47383;-52
2021/09/15 09:20:31;;;;;;;;;51.25;41.25;;;;;24.12;67.17;100590.69;5079089;27;45484;-49
2021/09/15 09:23:29;;;;;;;;;10.00;10.00;;;;;24.10;67.46;100579.13;5078612;27;45417;-53
2021/09/15 09:25:56;;;;;;;;;11.67;9.00;;;;;24.08;67.18;100584.66;5042872;27;45566;-52
2021/09/15 09:28:33;;;;;;;;;9.33;9.33;;;;;24.08;67.58;100583.81;5079555;27;48205;-53
2021/09/15 09:31:04;;;;;;;;;10.00;7.00;;;;;24.08;67.10;100581.94;5077100;27;45597;-51
2021/09/15 09:33:31;;;;;;;;;7.00;7.00;;;;;24.08;67.41;100590.09;5078567;27;45497;-51
2021/09/15 09:36:00;;;;;;;;;7.33;7.33;;;;;24.08;67.48;100590.09;5079735;27;45319;-54
2021/09/15 09:38:33;;;;;;;;;10.00;8.33;;;;;24.07;67.65;100590.22;5077666;27;47194;-52
2021/09/15 09:41:07;;;;;;;;;8.00;8.00;;;;;24.05;67.69;100597.59;5081910;27;46516;-50
2021/09/15 09:43:36;;;;;;;;;7.67;7.67;;;;;24.05;67.58;100601.19;5079682;27;45865;-50
2021/09/15 09:46:04;;;;;;;;;7.00;7.00;;;;;24.03;67.72;100602.28;5079059;27;45388;-50
2021/09/15 09:48:35;;;;;;;;;8.00;8.00;;;;;23.98;67.81;100591.81;5079696;27;48445;-52
2021/09/15 09:51:42;;;;;;;;;10.33;7.67;;;;;23.94;67.97;100603.88;5080888;27;45877;-49
2021/09/15 09:54:25;;;;;;;;;7.33;6.67;;;;;23.92;68.06;100596.88;5076839;27;45315;-53
2021/09/15 09:56:53;;;;;;;;;4.00;4.00;;;;;23.88;68.11;100598.06;5079199;27;45718;-52
2021/09/15 09:59:21;;;;;;;;;8.00;6.00;;;;;23.83;68.43;100593.03;5078562;27;48117;-52
2021/09/15 10:01:47;;;;;;;;;6.67;5.67;;;;;23.82;68.82;100590.44;5080660;27;45564;-50
2021/09/15 10:04:15;;;;;;;;;7.00;6.00;;;;;23.83;68.52;100595.72;5068233;27;45414;-50
2021/09/15 10:06:42;;;;;;;;;8.00;8.00;;;;;23.85;68.70;100591.03;5078396;27;45437;-53
2021/09/15 10:09:09;;;;;;;;;8.67;7.00;;;;;23.87;68.56;100593.63;5088059;27;47487;-54
2021/09/15 10:11:36;;;;;;;;;7.00;7.00;;;;;23.88;68.27;100589.94;5074435;27;45357;-52
2021/09/15 10:14:03;;;;;;;;;7.67;7.67;;;;;23.90;68.79;100594.28;5062851;28;45460;-53
2021/09/15 10:16:33;;;;;;;;;9.67;9.67;;;;;23.92;68.71;100595.00;5060773;28;45549;-52
2021/09/15 10:19:01;;;;;;;;;10.00;9.00;;;;;23.93;68.64;100596.75;5059167;28;47806;-53
2021/09/15 10:21:28;;;;;;;;;7.67;7.00;;;;;23.93;68.49;100596.75;5060386;28;46131;-53
2021/09/15 10:23:54;;;;;;;;;8.67;7.00;;;;;23.94;68.20;100598.47;5055499;28;45331;-53
2021/09/15 10:26:35;;;;;;;;;11.00;10.00;;;;;23.96;68.40;100598.34;5083611;27;45502;-51
2021/09/15 10:29:29;;;;;;;;;8.00;8.00;;;;;23.97;68.22;100590.06;5070360;28;48520;-52
2021/09/15 10:32:02;;;;;;;;;7.00;6.00;;;;;23.97;68.26;100591.94;5083304;27;45334;-50
2021/09/15 10:34:40;;;;;;;;;8.67;7.67;;;;;23.97;68.54;100595.50;5057114;28;45768;-52
2021/09/15 10:37:12;;;;;;;;;9.67;8.67;;;;;24.01;68.80;100591.59;5078339;27;45432;-50
2021/09/15 10:40:03;;;;;;;;;10.00;10.00;;;;;24.08;68.49;100594.66;5077068;27;47382;-51
2021/09/15 10:42:38;;;;;;;;;17.67;15.67;;;;;24.14;68.39;100598.69;5057967;28;45703;-52
2021/09/15 10:45:16;;;;;;;;;14.00;12.00;;;;;24.17;68.44;100598.47;5077091;27;45434;-52
2021/09/15 10:47:49;;;;;;;;;14.00;14.00;;;;;24.17;68.02;100602.06;5078208;27;46283;-50
2021/09/15 10:50:30;;;;;;;;;16.00;14.67;;;;;24.19;68.52;100593.78;5081041;27;47087;-49
2021/09/15 10:53:07;;;;;;;;;11.00;11.00;;;;;24.20;68.28;100599.09;5075305;27;45857;-51
2021/09/15 10:55:57;;;;;;;;;15.33;15.00;;;;;24.20;68.50;100601.81;5076766;27;45402;-51
2021/09/15 10:58:30;;;;;;;;;13.67;13.67;;;;;24.24;68.58;100605.13;5054493;27;45965;-52
2021/09/15 11:01:02;;;;;;;;;12.33;12.33;;;;;24.29;68.31;100602.91;5059319;28;48134;-53
2021/09/15 11:03:32;;;;;;;;;17.33;16.33;;;;;24.32;68.40;100605.41;5064607;28;45264;-53
2021/09/15 11:06:06;;;;;;;;;20.00;19.00;;;;;24.31;67.84;100604.53;5078179;27;45655;-51
2021/09/15 11:08:38;;;;;;;;;21.00;20.00;;;;;24.29;67.86;100602.91;5073972;27;45703;-52
2021/09/15 11:11:28;;;;;;;;;20.50;20.50;;;;;24.32;68.21;100605.41;5075613;27;48412;-53
2021/09/15 11:13:59;;;;;;;;;16.50;15.50;;;;;24.40;68.57;100605.66;5077886;27;45437;-53
2021/09/15 11:16:38;;;;;;;;;22.50;21.50;;;;;24.47;68.28;100606.00;5079996;28;45657;-53
2021/09/15 11:19:11;;;;;;;;;22.50;21.00;;;;;24.52;68.14;100611.91;5077453;27;45389;-53
2021/09/15 11:21:40;;;;;;;;;17.00;16.00;;;;;24.54;68.04;100612.66;5081673;27;47429;-52
2021/09/15 11:24:16;;;;;;;;;19.75;17.25;;;;;24.59;67.94;100614.00;5061181;27;45363;-52
2021/09/15 11:26:57;;;;;;;;;13.00;11.67;;;;;24.67;67.29;100607.09;5088517;27;45312;-53
2021/09/15 11:29:44;;;;;;;;;12.00;12.00;;;;;24.80;67.67;100608.69;5056816;27;45450;-52